Time;durP1;ratioP1;P1;durP2;ratioP2;P2;SDS_P1;SDS_P2;PMS_P1;PMS_P2;Temp;Humidity;BMP_temperature;BMP_pressure;BME280_temperature;BME280_humidity;BME280_pressure;Samples;Min_cycle;Max_cycle;Signal;HPM_P1;HPM_P2
2023/04/13 00:00:56;;;;;;;;;;;7.80;99.90;;;;;;4995329;28;19928;-70
2023/04/13 00:03:26;;;;;;;;;;;7.80;99.90;;;;;;5013594;28;19921;-70
2023/04/13 00:05:51;;;;;;;;;;;7.80;99.90;;;;;;4994678;28;19928;-70
2023/04/13 00:08:17;;;;;;;;;;;9.00;99.90;;;;;;4996119;28;19917;-70
2023/04/13 00:10:44;;;;;;;;;;;7.70;99.90;;;;;;5013198;28;20431;-70
2023/04/13 00:13:11;;;;;;;;;;;8.00;99.90;;;;;;4995601;28;19925;-71
2023/04/13 00:15:40;;;;;;;;;;;7.70;99.90;;;;;;5013440;28;19925;-70
2023/04/13 00:18:07;;;;;;;;;;;7.40;99.90;;;;;;4994807;28;19922;-71
2023/04/13 00:20:33;;;;;;;;;;;7.20;99.90;;;;;;5013175;28;20449;-70
2023/04/13 00:22:58;;;;;;;;;;;7.00;99.90;;;;;;4995414;28;20021;-70
2023/04/13 00:25:24;;;;;;;;;;;6.70;99.90;;;;;;5012504;28;20662;-70
2023/04/13 00:27:51;;;;;;;;;;;6.60;99.90;;;;;;5013147;28;19932;-70
2023/04/13 00:30:18;;;;;;;;;;;6.50;99.90;;;;;;5008618;28;19921;-70
2023/04/13 00:32:44;;;;;;;;;;;6.70;99.90;;;;;;4995127;28;19921;-70
2023/04/13 00:35:12;;;;;;;;;;;6.40;99.90;;;;;;5012932;28;20750;-70
2023/04/13 00:37:38;;;;;;;;;;;6.30;99.90;;;;;;4995495;28;19935;-70
2023/04/13 00:40:08;;;;;;;;;;;6.20;99.90;;;;;;4994334;28;20285;-71
2023/04/13 00:42:36;;;;;;;;;;;6.20;99.90;;;;;;5013262;28;19951;-70
2023/04/13 00:45:02;;;;;;;;;;;6.20;99.90;;;;;;5007745;28;19983;-70
2023/04/13 00:47:29;;;;;;;;;;;6.10;99.90;;;;;;5032090;28;19927;-70
2023/04/13 00:49:55;;;;;;;;;;;6.50;99.90;;;;;;5032588;28;20300;-70
2023/04/13 00:52:21;;;;;;;;;;;6.20;99.90;;;;;;5031392;28;19925;-70
2023/04/13 00:54:47;;;;;;;;;;;6.10;99.90;;;;;;4998443;28;19926;-70
2023/04/13 00:57:15;;;;;;;;;;;6.10;99.90;;;;;;5016640;28;19922;-70
2023/04/13 00:59:40;;;;;;;;;;;6.20;99.90;;;;;;4999051;28;20391;-70
2023/04/13 01:02:06;;;;;;;;;;;6.10;99.90;;;;;;4998032;28;20004;-69
2023/04/13 01:04:32;;;;;;;;;;;6.10;99.90;;;;;;5016859;28;20277;-70
2023/04/13 01:06:58;;;;;;;;;;;6.20;99.90;;;;;;5016291;28;19921;-70
2023/04/13 01:09:29;;;;;;;;;;;6.10;99.90;;;;;;5018449;28;19921;-69
2023/04/13 01:12:09;;;;;;;;;;;6.10;99.90;;;;;;5018199;28;19921;-70
2023/04/13 01:14:36;;;;;;;;;;;6.30;99.90;;;;;;5035753;28;19921;-70
2023/04/13 01:17:06;;;;;;;;;;;6.20;99.90;;;;;;5035775;28;20395;-70
2023/04/13 01:19:39;;;;;;;;;;;6.20;99.90;;;;;;5012792;28;19985;-70
2023/04/13 01:22:06;;;;;;;;;;;6.10;99.90;;;;;;5013795;28;20388;-70
2023/04/13 01:24:39;;;;;;;;;;;7.50;99.90;;;;;;5018386;28;19928;-70
2023/04/13 01:27:13;;;;;;;;;;;6.20;99.90;;;;;;5036037;28;19921;-70
2023/04/13 01:29:41;;;;;;;;;;;6.20;99.90;;;;;;5034651;28;19999;-70
2023/04/13 01:32:07;;;;;;;;;;;6.20;99.90;;;;;;5034028;28;19935;-70
2023/04/13 01:34:33;;;;;;;;;;;6.10;99.90;;;;;;5036128;28;19953;-70
2023/04/13 01:37:03;;;;;;;;;;;6.10;99.90;;;;;;5017162;28;19925;-70
2023/04/13 01:39:31;;;;;;;;;;;6.20;99.90;;;;;;5028564;28;19921;-69
2023/04/13 01:41:56;;;;;;;;;;;6.20;99.90;;;;;;5015687;28;20012;-70
2023/04/13 01:44:22;;;;;;;;;;;6.70;99.90;;;;;;4997502;28;20397;-70
2023/04/13 01:46:52;;;;;;;;;;;6.30;99.90;;;;;;5016010;28;19925;-69
2023/04/13 01:49:18;;;;;;;;;;;6.30;99.90;;;;;;4998282;28;19922;-70
2023/04/13 01:51:50;;;;;;;;;;;6.30;99.90;;;;;;5014900;28;19994;-70
2023/04/13 01:54:19;;;;;;;;;;;6.40;99.90;;;;;;4998327;28;20011;-70
2023/04/13 01:56:45;;;;;;;;;;;6.30;99.90;;;;;;5015064;28;19921;-70
2023/04/13 01:59:11;;;;;;;;;;;6.30;99.90;;;;;;4997777;28;19925;-70
2023/04/13 02:01:39;;;;;;;;;;;6.30;99.90;;;;;;4997929;28;19921;-70
2023/04/13 02:04:08;;;;;;;;;;;7.20;99.90;;;;;;4996031;28;19976;-70
2023/04/13 02:06:41;;;;;;;;;;;6.60;99.90;;;;;;4997907;28;20344;-70
2023/04/13 02:09:06;;;;;;;;;;;6.40;99.90;;;;;;4997806;28;19984;-70
2023/04/13 02:11:33;;;;;;;;;;;6.40;99.90;;;;;;5014622;28;20277;-70
2023/04/13 02:13:58;;;;;;;;;;;6.40;99.90;;;;;;4997733;28;19921;-70
2023/04/13 02:16:24;;;;;;;;;;;6.40;99.90;;;;;;5015774;28;20333;-70
2023/04/13 02:18:52;;;;;;;;;;;6.40;99.90;;;;;;5014606;28;19925;-71
2023/04/13 02:21:18;;;;;;;;;;;6.40;99.90;;;;;;5015538;28;19921;-70
2023/04/13 02:23:44;;;;;;;;;;;6.30;99.90;;;;;;5016439;28;19983;-70
2023/04/13 02:26:15;;;;;;;;;;;6.30;99.90;;;;;;4996494;28;19925;-70
2023/04/13 02:28:40;;;;;;;;;;;6.10;99.90;;;;;;5015610;28;19932;-70
2023/04/13 02:31:09;;;;;;;;;;;6.10;99.90;;;;;;4997670;28;19922;-70
2023/04/13 02:33:35;;;;;;;;;;;6.20;99.90;;;;;;5005865;28;19920;-70
2023/04/13 02:36:02;;;;;;;;;;;6.20;99.90;;;;;;5004934;28;20042;-70
2023/04/13 02:38:28;;;;;;;;;;;6.10;99.90;;;;;;4997809;28;19963;-70
2023/04/13 02:40:54;;;;;;;;;;;6.00;99.90;;;;;;5014025;28;19964;-70
2023/04/13 02:43:20;;;;;;;;;;;5.90;99.90;;;;;;4997742;28;20430;-70
2023/04/13 02:45:45;;;;;;;;;;;5.80;99.90;;;;;;4996883;28;19921;-70
2023/04/13 02:48:12;;;;;;;;;;;5.80;99.90;;;;;;4998342;28;19951;-70
2023/04/13 02:50:38;;;;;;;;;;;5.70;99.90;;;;;;5034545;28;20389;-70
2023/04/13 02:53:03;;;;;;;;;;;5.60;99.90;;;;;;5033609;28;20457;-70
2023/04/13 02:55:31;;;;;;;;;;;5.30;99.90;;;;;;5035602;28;19921;-70
2023/04/13 02:57:57;;;;;;;;;;;5.20;99.90;;;;;;5016746;28;19928;-71
2023/04/13 03:00:24;;;;;;;;;;;5.30;99.90;;;;;;5033980;28;19921;-70
2023/04/13 03:02:51;;;;;;;;;;;5.20;99.90;;;;;;5017263;28;20422;-70
2023/04/13 03:05:18;;;;;;;;;;;5.20;99.90;;;;;;5018352;28;20008;-70
2023/04/13 03:07:44;;;;;;;;;;;5.10;99.90;;;;;;4996876;28;20288;-71
2023/04/13 03:10:10;;;;;;;;;;;5.20;99.90;;;;;;5015029;28;20393;-70
2023/04/13 03:12:35;;;;;;;;;;;5.20;99.90;;;;;;4997426;28;19940;-70
2023/04/13 03:15:06;;;;;;;;;;;5.20;99.90;;;;;;4995782;28;19922;-70
2023/04/13 03:17:32;;;;;;;;;;;6.00;99.90;;;;;;4997836;28;19921;-70
2023/04/13 03:19:58;;;;;;;;;;;5.40;99.90;;;;;;4998282;28;19929;-70
2023/04/13 03:22:24;;;;;;;;;;;5.20;99.90;;;;;;4997434;28;19963;-69
2023/04/13 03:24:50;;;;;;;;;;;5.50;99.90;;;;;;4997642;28;20020;-70
2023/04/13 03:27:16;;;;;;;;;;;5.60;99.90;;;;;;4998231;28;20348;-70
2023/04/13 03:29:48;;;;;;;;;;;5.80;99.90;;;;;;4997072;28;20023;-70
2023/04/13 03:32:14;;;;;;;;;;;5.40;99.90;;;;;;4997564;28;19996;-70
2023/04/13 03:34:42;;;;;;;;;;;5.30;99.90;;;;;;5016789;28;20026;-69
2023/04/13 03:37:09;;;;;;;;;;;5.30;99.90;;;;;;5016948;28;20018;-70
2023/04/13 03:39:35;;;;;;;;;;;5.30;99.90;;;;;;5017632;28;19952;-70
2023/04/13 03:42:03;;;;;;;;;;;5.20;99.90;;;;;;5035580;28;19974;-70
2023/04/13 03:44:29;;;;;;;;;;;5.50;99.90;;;;;;4998727;28;20004;-70
2023/04/13 03:46:55;;;;;;;;;;;5.20;99.90;;;;;;5015492;28;20016;-69
2023/04/13 03:49:21;;;;;;;;;;;5.20;99.90;;;;;;5014820;28;19963;-69
2023/04/13 03:51:46;;;;;;;;;;;5.20;99.90;;;;;;5033236;28;19971;-69
2023/04/13 03:54:12;;;;;;;;;;;5.20;99.90;;;;;;5014906;28;19920;-70
2023/04/13 03:56:37;;;;;;;;;;;5.30;99.90;;;;;;5014711;28;19917;-70
2023/04/13 03:59:03;;;;;;;;;;;5.30;99.90;;;;;;5015185;28;19979;-70
2023/04/13 04:01:29;;;;;;;;;;;5.30;99.90;;;;;;5033221;28;19928;-69
2023/04/13 04:03:57;;;;;;;;;;;5.30;99.90;;;;;;5014742;28;20406;-69
2023/04/13 04:06:23;;;;;;;;;;;5.30;99.90;;;;;;5033342;28;19964;-69
2023/04/13 04:08:49;;;;;;;;;;;5.40;99.90;;;;;;5006876;28;19964;-70
2023/04/13 04:11:15;;;;;;;;;;;5.30;99.90;;;;;;4995085;28;19987;-69
2023/04/13 04:13:41;;;;;;;;;;;5.20;99.90;;;;;;5020432;28;19924;-69
2023/04/13 04:16:07;;;;;;;;;;;5.30;99.90;;;;;;5015278;28;19925;-70
2023/04/13 04:18:33;;;;;;;;;;;5.30;99.90;;;;;;5031881;28;19921;-70
2023/04/13 04:21:01;;;;;;;;;;;5.70;99.90;;;;;;5015307;28;19932;-71
2023/04/13 04:23:27;;;;;;;;;;;5.60;99.90;;;;;;5032866;28;19928;-70
2023/04/13 04:25:53;;;;;;;;;;;5.40;99.90;;;;;;5033475;28;19921;-71
2023/04/13 04:28:18;;;;;;;;;;;5.30;99.90;;;;;;5009762;28;20431;-70
2023/04/13 04:30:53;;;;;;;;;;;5.40;99.90;;;;;;5002131;28;19948;-70
2023/04/13 04:33:21;;;;;;;;;;;5.40;99.90;;;;;;5018877;28;19975;-71
2023/04/13 04:35:49;;;;;;;;;;;5.40;99.90;;;;;;5024737;28;19921;-69
2023/04/13 04:38:16;;;;;;;;;;;5.30;99.90;;;;;;5020739;28;19925;-70
2023/04/13 04:40:45;;;;;;;;;;;5.20;99.90;;;;;;4997764;28;19976;-69
2023/04/13 04:43:12;;;;;;;;;;;5.30;99.90;;;;;;4999939;28;19977;-70
2023/04/13 04:45:40;;;;;;;;;;;5.30;99.90;;;;;;5002993;28;20412;-70
2023/04/13 04:48:12;;;;;;;;;;;5.30;99.90;;;;;;5019181;28;19921;-70
2023/04/13 04:50:38;;;;;;;;;;;5.30;99.90;;;;;;5018515;28;19961;-70
2023/04/13 04:53:07;;;;;;;;;;;5.20;99.90;;;;;;5016989;28;19971;-70
2023/04/13 04:55:33;;;;;;;;;;;6.40;99.90;;;;;;5017970;28;19925;-70
2023/04/13 04:57:58;;;;;;;;;;;5.20;99.90;;;;;;4998131;28;19922;-71
2023/04/13 05:00:25;;;;;;;;;;;5.30;99.90;;;;;;4997977;28;19922;-71
2023/04/13 05:02:51;;;;;;;;;;;5.20;99.90;;;;;;5017943;28;19925;-71
2023/04/13 05:05:16;;;;;;;;;;;5.20;99.90;;;;;;5019367;28;19972;-71
2023/04/13 05:07:43;;;;;;;;;;;5.30;99.90;;;;;;5017576;28;19968;-70
2023/04/13 05:10:12;;;;;;;;;;;5.20;99.90;;;;;;5019147;28;19921;-70
2023/04/13 05:12:37;;;;;;;;;;;5.30;99.90;;;;;;5008436;28;20361;-71
2023/04/13 05:15:03;;;;;;;;;;;5.40;99.90;;;;;;4998613;28;20012;-71
2023/04/13 05:17:29;;;;;;;;;;;5.40;99.90;;;;;;4999457;28;19922;-71
2023/04/13 05:19:55;;;;;;;;;;;5.60;99.90;;;;;;4998985;28;19921;-71
2023/04/13 05:22:21;;;;;;;;;;;6.90;99.90;;;;;;4998815;28;19926;-72
2023/04/13 05:24:46;;;;;;;;;;;5.70;99.90;;;;;;5001931;28;19944;-70
2023/04/13 05:27:12;;;;;;;;;;;6.10;99.90;;;;;;5017915;28;20272;-70
2023/04/13 05:29:39;;;;;;;;;;;6.00;99.90;;;;;;5014847;28;20361;-70
2023/04/13 05:32:04;;;;;;;;;;;6.10;99.90;;;;;;5008176;28;19928;-71
2023/04/13 05:34:31;;;;;;;;;;;6.20;99.90;;;;;;5015072;28;19969;-70
2023/04/13 05:37:00;;;;;;;;;;;6.60;99.90;;;;;;4996928;28;19930;-71
2023/04/13 05:39:26;;;;;;;;;;;6.30;99.90;;;;;;4995008;28;20354;-70
2023/04/13 05:41:51;;;;;;;;;;;6.70;99.90;;;;;;4995312;28;20013;-70
2023/04/13 05:44:17;;;;;;;;;;;6.20;99.90;;;;;;5007056;28;20323;-73
2023/04/13 05:46:43;;;;;;;;;;;6.50;99.90;;;;;;5012212;28;19925;-80
2023/04/13 05:49:10;;;;;;;;;;;6.20;99.90;;;;;;5007654;28;19929;-72
2023/04/13 05:51:36;;;;;;;;;;;6.10;99.90;;;;;;5006539;28;19924;-72
2023/04/13 05:54:02;;;;;;;;;;;6.10;99.90;;;;;;4995761;28;19921;-78
2023/04/13 05:56:31;;;;;;;;;;;6.20;99.90;;;;;;5009610;28;19921;-70
2023/04/13 05:58:56;;;;;;;;;;;7.20;99.90;;;;;;4995785;28;19929;-78
2023/04/13 06:01:23;;;;;;;;;;;6.40;99.90;;;;;;4996063;28;19984;-75
2023/04/13 06:03:48;;;;;;;;;;;6.60;99.90;;;;;;4994036;28;19926;-76
2023/04/13 06:06:16;;;;;;;;;;;6.70;99.90;;;;;;4994315;28;20025;-78
2023/04/13 06:08:42;;;;;;;;;;;6.70;99.90;;;;;;5009317;28;19983;-74
2023/04/13 06:11:08;;;;;;;;;;;6.70;99.90;;;;;;5009244;28;19922;-70
2023/04/13 06:13:34;;;;;;;;;;;6.80;99.90;;;;;;5009246;28;19929;-72
2023/04/13 06:15:59;;;;;;;;;;;6.80;99.90;;;;;;5014803;28;20369;-76
2023/04/13 06:18:25;;;;;;;;;;;6.80;99.90;;;;;;4996151;28;19977;-76
2023/04/13 06:20:51;;;;;;;;;;;7.10;99.90;;;;;;4993719;28;19928;-74
2023/04/13 06:23:17;;;;;;;;;;;6.80;99.90;;;;;;4994651;28;19922;-75
2023/04/13 06:25:43;;;;;;;;;;;7.20;99.90;;;;;;4993742;28;20357;-74
2023/04/13 06:28:09;;;;;;;;;;;6.90;99.90;;;;;;5010621;28;19926;-76
2023/04/13 06:30:36;;;;;;;;;;;6.90;99.90;;;;;;5006101;28;19921;-78
2023/04/13 06:33:07;;;;;;;;;;;6.90;99.90;;;;;;4978182;28;19953;-74
2023/04/13 06:35:34;;;;;;;;;;;7.10;99.90;;;;;;4994878;28;19971;-76
2023/04/13 06:38:00;;;;;;;;;;;7.20;99.90;;;;;;4992956;28;19923;-74
2023/04/13 06:40:30;;;;;;;;;;;7.30;99.90;;;;;;5007181;28;19928;-73
2023/04/13 06:42:56;;;;;;;;;;;8.10;99.90;;;;;;5012741;28;19967;-73
2023/04/13 06:45:22;;;;;;;;;;;7.70;99.90;;;;;;5012355;28;19925;-75
2023/04/13 06:47:48;;;;;;;;;;;7.50;99.90;;;;;;5014468;28;19929;-82
2023/04/13 06:50:14;;;;;;;;;;;7.50;99.90;;;;;;5009044;28;19974;-77
2023/04/13 06:52:43;;;;;;;;;;;7.50;99.90;;;;;;5034401;28;20400;-75
2023/04/13 06:55:09;;;;;;;;;;;7.40;99.90;;;;;;5016184;28;19928;-73
2023/04/13 06:57:34;;;;;;;;;;;8.10;99.90;;;;;;5016312;28;19921;-75
2023/04/13 07:00:00;;;;;;;;;;;7.30;99.90;;;;;;5031410;28;20008;-77
2023/04/13 07:02:26;;;;;;;;;;;7.40;99.90;;;;;;5015443;28;20016;-76
2023/04/13 07:04:51;;;;;;;;;;;8.00;99.90;;;;;;5032097;28;20019;-75
2023/04/13 07:07:17;;;;;;;;;;;8.30;99.90;;;;;;5015588;28;20365;-75
2023/04/13 07:09:43;;;;;;;;;;;7.50;99.90;;;;;;5034015;28;20367;-75
2023/04/13 07:12:08;;;;;;;;;;;7.70;99.90;;;;;;5014949;28;19921;-75
2023/04/13 07:14:35;;;;;;;;;;;7.50;99.90;;;;;;5030497;28;19927;-76
2023/04/13 07:17:01;;;;;;;;;;;7.60;99.90;;;;;;5014145;28;19979;-74
2023/04/13 07:19:28;;;;;;;;;;;7.60;99.90;;;;;;5032231;28;19925;-74
2023/04/13 07:22:01;;;;;;;;;;;7.60;99.90;;;;;;5013929;28;20422;-76
2023/04/13 07:24:26;;;;;;;;;;;7.40;99.90;;;;;;5032220;28;19963;-73
2023/04/13 07:26:52;;;;;;;;;;;7.60;99.90;;;;;;5029107;28;20341;-75
2023/04/13 07:29:18;;;;;;;;;;;8.00;99.90;;;;;;5015572;28;19922;-76
2023/04/13 07:31:43;;;;;;;;;;;8.30;99.90;;;;;;5013949;28;19983;-75
2023/04/13 07:34:16;;;;;;;;;;;8.40;99.90;;;;;;4995315;28;19921;-81
2023/04/13 07:36:42;;;;;;;;;;;9.50;99.90;;;;;;5027625;28;19925;-76
2023/04/13 07:39:08;;;;;;;;;;;8.60;99.90;;;;;;5029799;28;20428;-74
2023/04/13 07:41:45;;;;;;;;;;;8.50;99.90;;;;;;5015170;28;19936;-76
2023/04/13 07:44:13;;;;;;;;;;;8.50;99.90;;;;;;5015488;28;19936;-74
2023/04/13 07:46:39;;;;;;;;;;;8.20;99.90;;;;;;5032697;28;19991;-73
2023/04/13 07:49:05;;;;;;;;;;;8.10;99.90;;;;;;5011848;28;20407;-74
2023/04/13 07:51:31;;;;;;;;;;;8.20;99.90;;;;;;5033426;28;20368;-75
2023/04/13 07:53:56;;;;;;;;;;;8.00;99.90;;;;;;5011930;28;19921;-75
2023/04/13 07:56:22;;;;;;;;;;;7.90;99.90;;;;;;4995691;28;20364;-75
2023/04/13 07:58:47;;;;;;;;;;;7.90;99.90;;;;;;5013457;28;19922;-75
2023/04/13 08:01:13;;;;;;;;;;;7.90;99.90;;;;;;5012675;28;19921;-75
2023/04/13 08:03:38;;;;;;;;;;;7.60;99.90;;;;;;5001806;28;19924;-75
2023/04/13 08:06:08;;;;;;;;;;;7.50;99.90;;;;;;5004959;28;19964;-75
2023/04/13 08:08:36;;;;;;;;;;;7.70;99.90;;;;;;5013633;28;20328;-77
2023/04/13 08:11:01;;;;;;;;;;;8.70;99.90;;;;;;5012644;28;19928;-77
2023/04/13 08:13:28;;;;;;;;;;;9.70;99.90;;;;;;5013294;28;20012;-77
2023/04/13 08:15:55;;;;;;;;;;;10.30;99.90;;;;;;4995577;28;19928;-77
2023/04/13 08:18:31;;;;;;;;;;;10.90;99.90;;;;;;5012146;28;19929;-77
2023/04/13 08:20:57;;;;;;;;;;;11.30;99.90;;;;;;5013153;28;19925;-76
2023/04/13 08:23:23;;;;;;;;;;;10.80;99.90;;;;;;4995165;28;19921;-76
2023/04/13 08:25:48;;;;;;;;;;;10.40;99.90;;;;;;4995801;28;20008;-75
2023/04/13 08:28:14;;;;;;;;;;;9.60;99.90;;;;;;5013153;28;19921;-76
2023/04/13 08:30:42;;;;;;;;;;;9.70;99.90;;;;;;5012671;28;20351;-77
2023/04/13 08:33:09;;;;;;;;;;;10.70;99.90;;;;;;5025238;28;19928;-76
2023/04/13 08:35:38;;;;;;;;;;;12.00;99.90;;;;;;5015127;28;19921;-79
2023/04/13 08:38:05;;;;;;;;;;;13.00;99.90;;;;;;5031923;28;20113;-77
2023/04/13 08:40:38;;;;;;;;;;;13.80;99.90;;;;;;5015058;28;20059;-77
2023/04/13 08:43:04;;;;;;;;;;;14.70;99.90;;;;;;5032194;28;19975;-77
2023/04/13 08:45:30;;;;;;;;;;;15.10;99.90;;;;;;5031750;28;20015;-77
2023/04/13 08:47:56;;;;;;;;;;;15.10;99.90;;;;;;5014823;28;20419;-77
2023/04/13 08:50:24;;;;;;;;;;;14.80;99.90;;;;;;5029433;28;19928;-77
2023/04/13 08:52:50;;;;;;;;;;;15.00;99.90;;;;;;5012128;28;20381;-76
2023/04/13 08:55:15;;;;;;;;;;;14.50;99.90;;;;;;4995162;28;19928;-77
2023/04/13 08:57:41;;;;;;;;;;;14.20;99.90;;;;;;4994965;28;20360;-77
2023/04/13 09:00:14;;;;;;;;;;;14.50;99.90;;;;;;5011973;28;20381;-77
2023/04/13 09:02:41;;;;;;;;;;;14.70;99.90;;;;;;5023754;28;19922;-77
2023/04/13 09:05:14;;;;;;;;;;;14.60;99.90;;;;;;5025526;28;19947;-77
2023/04/13 09:07:40;;;;;;;;;;;14.90;99.90;;;;;;5004826;28;19921;-77
2023/04/13 09:10:06;;;;;;;;;;;14.20;99.90;;;;;;5029671;28;20007;-77
2023/04/13 09:12:32;;;;;;;;;;;13.10;99.90;;;;;;5004610;28;19929;-76
2023/04/13 09:14:58;;;;;;;;;;;12.20;99.90;;;;;;4997967;28;19921;-76
2023/04/13 09:17:24;;;;;;;;;;;12.10;99.90;;;;;;5017060;28;19922;-77
2023/04/13 09:19:50;;;;;;;;;;;12.40;99.90;;;;;;5015431;28;20413;-77
2023/04/13 09:22:15;;;;;;;;;;;12.60;99.90;;;;;;5016521;28;19929;-78
2023/04/13 09:24:41;;;;;;;;;;;13.10;99.90;;;;;;5016310;28;19967;-76
2023/04/13 09:27:20;;;;;;;;;;;12.60;99.90;;;;;;5015550;28;20404;-76
2023/04/13 09:29:52;;;;;;;;;;;12.10;99.90;;;;;;4998647;28;19925;-76
2023/04/13 09:32:19;;;;;;;;;;;11.50;99.90;;;;;;5016513;28;19928;-77
2023/04/13 09:34:44;;;;;;;;;;;11.20;99.90;;;;;;5015437;28;19922;-77
2023/04/13 09:37:11;;;;;;;;;;;10.90;99.90;;;;;;5015866;28;20243;-77
2023/04/13 09:39:37;;;;;;;;;;;11.40;99.90;;;;;;5015505;28;19925;-76
2023/04/13 09:42:08;;;;;;;;;;;10.90;99.90;;;;;;4997821;28;20369;-77
2023/04/13 09:44:34;;;;;;;;;;;11.20;99.90;;;;;;4998854;28;20296;-77
2023/04/13 09:47:01;;;;;;;;;;;11.60;99.90;;;;;;5015687;28;20055;-77
2023/04/13 09:49:39;;;;;;;;;;;11.70;99.90;;;;;;5003065;28;19920;-77
2023/04/13 09:52:08;;;;;;;;;;;12.00;99.90;;;;;;5035327;28;19924;-78
2023/04/13 09:54:34;;;;;;;;;;;12.30;99.90;;;;;;5036182;28;19920;-77
2023/04/13 09:56:59;;;;;;;;;;;11.90;99.90;;;;;;5034590;28;20288;-76
2023/04/13 09:59:26;;;;;;;;;;;11.20;99.90;;;;;;5031944;28;20353;-76
2023/04/13 10:01:52;;;;;;;;;;;11.40;99.90;;;;;;5014859;28;20336;-77
2023/04/13 10:04:18;;;;;;;;;;;11.10;99.90;;;;;;5015260;28;19944;-77
2023/04/13 10:06:44;;;;;;;;;;;11.40;99.90;;;;;;4998184;28;19921;-76
2023/04/13 10:09:10;;;;;;;;;;;10.90;99.90;;;;;;5015690;28;20048;-74
2023/04/13 10:11:48;;;;;;;;;;;10.70;99.90;;;;;;5031340;28;19917;-76
2023/04/13 10:14:34;;;;;;;;;;;10.20;99.90;;;;;;5033569;28;19971;-77
2023/04/13 10:17:06;;;;;;;;;;;9.80;99.90;;;;;;5014851;28;19923;-75
2023/04/13 10:19:36;;;;;;;;;;;9.60;99.90;;;;;;5013277;28;19921;-76
2023/04/13 10:22:02;;;;;;;;;;;9.60;99.90;;;;;;5014907;28;19929;-79
2023/04/13 10:24:46;;;;;;;;;;;10.90;99.90;;;;;;5027248;28;19979;-77
2023/04/13 10:27:17;;;;;;;;;;;9.80;99.90;;;;;;5029184;28;19922;-77
2023/04/13 10:29:42;;;;;;;;;;;9.70;99.90;;;;;;5022862;28;20277;-74
2023/04/13 10:32:18;;;;;;;;;;;9.50;99.90;;;;;;4996880;28;20015;-79
2023/04/13 10:34:44;;;;;;;;;;;9.40;99.90;;;;;;5087384;23;19922;-73
2023/04/13 10:37:18;;;;;;;;;;;9.20;99.90;;;;;;4971015;28;20305;-75
2023/04/13 10:39:45;;;;;;;;;;;9.10;99.90;;;;;;4973194;28;19976;-77
2023/04/13 10:42:12;;;;;;;;;;;9.00;99.90;;;;;;4958120;28;20249;-78
2023/04/13 10:44:45;;;;;;;;;;;8.70;99.90;;;;;;4975620;28;20354;-79
2023/04/13 10:47:11;;;;;;;;;;;8.60;99.90;;;;;;4957886;28;19933;-78
2023/04/13 10:49:37;;;;;;;;;;;8.70;99.90;;;;;;4958748;28;19981;-78
2023/04/13 10:52:07;;;;;;;;;;;9.10;99.90;;;;;;4966096;28;19966;-80
2023/04/13 10:54:33;;;;;;;;;;;9.70;99.90;;;;;;4975325;28;20267;-74
2023/04/13 10:57:02;;;;;;;;;;;8.70;99.90;;;;;;4975816;28;20332;-75
2023/04/13 10:59:54;;;;;;;;;;;8.30;99.90;;;;;;4993021;28;20286;-74
2023/04/13 11:02:19;;;;;;;;;;;8.20;99.90;;;;;;4994880;28;19922;-77
2023/04/13 11:04:46;;;;;;;;;;;8.10;99.90;;;;;;4973629;28;19918;-78
2023/04/13 11:07:13;;;;;;;;;;;8.30;99.90;;;;;;4984375;28;20119;-77
2023/04/13 11:09:39;;;;;;;;;;;8.30;99.90;;;;;;4962651;28;19985;-77
2023/04/13 11:12:07;;;;;;;;;;;8.80;99.90;;;;;;4995185;28;19929;-75
2023/04/13 11:14:39;;;;;;;;;;;8.60;99.90;;;;;;4972388;28;19922;-75
2023/04/13 11:17:12;;;;;;;;;;;8.60;99.90;;;;;;4992779;28;19918;-75
2023/04/13 11:19:50;;;;;;;;;;;9.20;99.90;;;;;;4993829;28;19921;-78
2023/04/13 11:22:17;;;;;;;;;;;9.70;99.90;;;;;;4994023;28;19929;-77
2023/04/13 11:24:43;;;;;;;;;;;10.00;99.90;;;;;;4962572;28;19965;-76
2023/04/13 11:27:39;;;;;;;;;;;10.00;99.90;;;;;;4970493;28;20012;-75
2023/04/13 11:30:05;;;;;;;;;;;9.80;99.90;;;;;;4972361;28;20008;-75
2023/04/13 11:32:36;;;;;;;;;;;9.80;99.90;;;;;;4967654;28;19968;-80
2023/04/13 11:35:07;;;;;;;;;;;9.90;99.90;;;;;;4975494;28;19932;-76
2023/04/13 11:37:41;;;;;;;;;;;10.20;99.90;;;;;;5005063;28;20272;-76
2023/04/13 11:40:20;;;;;;;;;;;10.40;99.90;;;;;;4993530;28;20365;-76
2023/04/13 11:42:46;;;;;;;;;;;10.40;99.90;;;;;;4986163;28;19922;-76
2023/04/13 11:45:13;;;;;;;;;;;10.70;99.90;;;;;;4993288;28;19992;-73
2023/04/13 11:47:39;;;;;;;;;;;11.40;99.90;;;;;;4987621;28;19925;-72
2023/04/13 11:50:04;;;;;;;;;;;12.20;99.90;;;;;;5011834;28;20369;-73
2023/04/13 11:52:31;;;;;;;;;;;12.00;99.90;;;;;;5011457;28;20009;-74
2023/04/13 11:54:57;;;;;;;;;;;12.10;99.90;;;;;;4991609;28;19992;-74
2023/04/13 11:57:27;;;;;;;;;;;11.90;99.90;;;;;;5012268;28;20011;-74
2023/04/13 11:59:56;;;;;;;;;;;11.90;99.90;;;;;;4994490;28;20389;-74
2023/04/13 12:02:28;;;;;;;;;;;11.60;99.90;;;;;;5011578;28;20050;-74
2023/04/13 12:04:54;;;;;;;;;;;11.50;99.90;;;;;;4994485;28;19928;-73
2023/04/13 12:07:20;;;;;;;;;;;11.50;99.90;;;;;;4994113;28;19936;-73
2023/04/13 12:09:46;;;;;;;;;;;12.20;99.90;;;;;;5009921;28;19968;-73
2023/04/13 12:12:17;;;;;;;;;;;11.30;99.90;;;;;;5012187;28;19925;-75
2023/04/13 12:14:51;;;;;;;;;;;11.50;99.90;;;;;;5012242;28;19928;-74
2023/04/13 12:17:21;;;;;;;;;;;11.90;99.90;;;;;;5010817;28;19968;-75
2023/04/13 12:19:53;;;;;;;;;;;11.90;99.90;;;;;;5012060;28;19972;-74
2023/04/13 12:22:22;;;;;;;;;;;11.60;99.90;;;;;;5012129;28;19967;-74
2023/04/13 12:24:48;;;;;;;;;;;11.00;99.90;;;;;;5011789;28;19924;-74
2023/04/13 12:27:13;;;;;;;;;;;11.60;99.90;;;;;;5007919;28;19925;-74
2023/04/13 12:29:39;;;;;;;;;;;11.60;99.90;;;;;;5011421;28;19928;-74
2023/04/13 12:32:15;;;;;;;;;;;11.60;99.90;;;;;;5011131;28;19968;-75
2023/04/13 12:34:44;;;;;;;;;;;11.90;99.90;;;;;;5005341;28;20028;-74
2023/04/13 12:37:10;;;;;;;;;;;11.70;99.90;;;;;;4947835;28;19944;-80
2023/04/13 12:39:56;;;;;;;;;;;11.50;99.90;;;;;;4958101;28;20457;-73
2023/04/13 12:42:22;;;;;;;;;;;10.40;99.90;;;;;;4969747;28;20425;-75
2023/04/13 12:44:48;;;;;;;;;;;11.40;99.90;;;;;;4971597;28;20024;-73
2023/04/13 12:47:23;;;;;;;;;;;11.30;99.90;;;;;;4955317;28;19930;-74
2023/04/13 12:49:48;;;;;;;;;;;11.00;99.90;;;;;;4975203;28;19925;-74
2023/04/13 12:52:14;;;;;;;;;;;11.10;99.90;;;;;;4968432;28;19951;-74
2023/04/13 12:54:43;;;;;;;;;;;11.10;99.90;;;;;;4960327;28;19918;-74
2023/04/13 12:57:15;;;;;;;;;;;11.20;99.90;;;;;;4976849;28;19965;-79
2023/04/13 12:59:41;;;;;;;;;;;11.10;99.90;;;;;;4953725;29;19934;-74
2023/04/13 13:02:08;;;;;;;;;;;11.00;99.90;;;;;;4953765;28;19937;-73
2023/04/13 13:04:34;;;;;;;;;;;11.00;99.90;;;;;;4976781;28;19968;-74
2023/04/13 13:07:03;;;;;;;;;;;11.00;99.90;;;;;;4956727;28;19922;-75
2023/04/13 13:09:29;;;;;;;;;;;10.90;99.90;;;;;;4980465;28;20025;-74
2023/04/13 13:11:55;;;;;;;;;;;11.00;99.90;;;;;;4996514;28;19945;-75
2023/04/13 13:14:27;;;;;;;;;;;11.10;99.90;;;;;;4980328;28;20301;-74
2023/04/13 13:16:53;;;;;;;;;;;11.30;99.90;;;;;;4998660;28;19933;-73
2023/04/13 13:19:19;;;;;;;;;;;11.30;99.90;;;;;;5016688;28;19921;-73
2023/04/13 13:21:45;;;;;;;;;;;11.10;99.90;;;;;;5017682;28;19921;-72
2023/04/13 13:24:13;;;;;;;;;;;11.00;99.90;;;;;;5017975;28;19948;-73
2023/04/13 13:26:39;;;;;;;;;;;10.90;99.90;;;;;;5018440;28;19922;-72
2023/04/13 13:29:05;;;;;;;;;;;10.80;99.90;;;;;;5002274;28;19928;-71
2023/04/13 13:31:31;;;;;;;;;;;10.80;99.90;;;;;;5021955;28;19927;-73
2023/04/13 13:33:56;;;;;;;;;;;10.80;99.90;;;;;;5015858;28;19921;-73
2023/04/13 13:36:22;;;;;;;;;;;10.90;99.90;;;;;;4999316;28;19931;-73
2023/04/13 13:38:47;;;;;;;;;;;10.90;99.90;;;;;;4999375;28;20431;-73
2023/04/13 13:41:13;;;;;;;;;;;11.20;99.90;;;;;;5015965;28;19929;-75
2023/04/13 13:43:39;;;;;;;;;;;11.30;99.90;;;;;;4998533;28;19921;-74
2023/04/13 13:46:05;;;;;;;;;;;11.30;99.90;;;;;;5015731;28;19921;-75
2023/04/13 13:48:31;;;;;;;;;;;11.40;99.90;;;;;;4993588;28;19921;-73
2023/04/13 13:50:56;;;;;;;;;;;11.40;99.90;;;;;;5011682;28;19937;-75
2023/04/13 13:53:22;;;;;;;;;;;11.40;99.90;;;;;;4996971;28;19926;-75
2023/04/13 13:55:50;;;;;;;;;;;11.50;99.90;;;;;;4992439;28;20012;-74
2023/04/13 13:58:16;;;;;;;;;;;11.40;99.90;;;;;;4993804;28;19969;-73
2023/04/13 14:00:41;;;;;;;;;;;11.40;99.90;;;;;;5006750;28;20718;-73
2023/04/13 14:03:07;;;;;;;;;;;11.30;99.90;;;;;;5006451;28;19925;-73
2023/04/13 14:05:32;;;;;;;;;;;11.40;99.90;;;;;;4989731;28;20008;-74
2023/04/13 14:07:58;;;;;;;;;;;11.50;99.90;;;;;;5015267;28;20014;-73
2023/04/13 14:10:24;;;;;;;;;;;11.50;99.90;;;;;;4987614;28;19922;-74
2023/04/13 14:12:51;;;;;;;;;;;11.80;99.90;;;;;;4994663;28;19980;-75
2023/04/13 14:15:17;;;;;;;;;;;11.60;99.90;;;;;;4989145;28;19922;-74
2023/04/13 14:17:43;;;;;;;;;;;11.60;99.90;;;;;;5015552;28;19957;-75
2023/04/13 14:20:10;;;;;;;;;;;11.80;99.90;;;;;;5013826;28;19957;-78
2023/04/13 14:22:36;;;;;;;;;;;11.90;99.90;;;;;;4985224;28;19922;-74
2023/04/13 14:25:02;;;;;;;;;;;11.90;99.90;;;;;;5003367;28;19969;-75
2023/04/13 14:27:28;;;;;;;;;;;11.80;99.90;;;;;;4995285;28;20384;-77